Time;durP1;ratioP1;P1;durP2;ratioP2;P2;SDS_P1;SDS_P2;PMS_P1;PMS_P2;Temp;Humidity;BMP_temperature;BMP_pressure;BME280_temperature;BME280_humidity;BME280_pressure;Samples;Min_cycle;Max_cycle;Signal;HPM_P1;HPM_P2
2021/03/23 00:02:10;;;;;;;8.43;5.95;;;6.40;99.90;;;;;;5031323;28;20045;-89
2021/03/23 00:04:37;;;;;;;7.93;6.20;;;6.40;99.90;;;;;;5022633;28;20112;-89
2021/03/23 00:07:05;;;;;;;7.90;5.95;;;6.40;99.90;;;;;;5011091;28;20053;-88
2021/03/23 00:09:35;;;;;;;9.13;6.03;;;6.40;99.90;;;;;;5013951;28;20112;-88
2021/03/23 00:12:04;;;;;;;8.10;5.95;;;6.50;99.90;;;;;;5014491;28;20026;-88
2021/03/23 00:14:31;;;;;;;7.93;5.88;;;6.50;99.90;;;;;;5007022;28;20026;-88
2021/03/23 00:17:00;;;;;;;8.73;5.93;;;6.40;99.90;;;;;;5030865;28;20033;-89
2021/03/23 00:19:27;;;;;;;9.45;6.72;;;6.50;99.90;;;;;;5013717;28;20034;-89
2021/03/23 00:21:54;;;;;;;9.25;7.03;;;6.50;99.90;;;;;;4998456;28;20025;-88
2021/03/23 00:24:23;;;;;;;12.55;8.18;;;6.40;99.90;;;;;;5030765;28;20022;-89
2021/03/23 00:26:52;;;;;;;10.55;7.63;;;6.40;99.90;;;;;;5014562;28;20029;-87
2021/03/23 00:29:22;;;;;;;10.13;7.50;;;6.40;99.90;;;;;;5013556;28;20086;-89
2021/03/23 00:31:53;;;;;;;11.30;8.10;;;6.40;99.90;;;;;;5013793;28;20466;-89
2021/03/23 00:34:42;;;;;;;12.43;8.75;;;6.40;99.90;;;;;;5031589;28;20029;-89
2021/03/23 00:37:08;;;;;;;10.68;8.02;;;6.40;99.90;;;;;;5009836;28;20429;-89
2021/03/23 00:39:35;;;;;;;10.25;7.55;;;6.40;99.90;;;;;;5006856;28;20083;-89
2021/03/23 00:42:12;;;;;;;9.48;6.95;;;6.40;99.90;;;;;;5009796;28;20774;-89
2021/03/23 00:44:38;;;;;;;9.13;6.70;;;6.40;99.90;;;;;;5022399;28;20075;-88
2021/03/23 00:47:08;;;;;;;9.13;6.43;;;6.40;99.90;;;;;;5020455;28;20083;-89
2021/03/23 00:49:35;;;;;;;8.82;5.97;;;6.40;99.90;;;;;;4995910;28;20057;-89
2021/03/23 00:52:01;;;;;;;9.57;6.25;;;6.40;99.90;;;;;;5017595;28;20028;-89
2021/03/23 00:54:31;;;;;;;8.18;5.45;;;6.40;99.90;;;;;;4996880;28;20072;-89
2021/03/23 00:56:57;;;;;;;7.00;5.05;;;6.40;99.90;;;;;;5004988;28;20303;-89
2021/03/23 00:59:23;;;;;;;8.02;5.40;;;6.40;99.90;;;;;;5005766;28;20056;-89
2021/03/23 01:01:52;;;;;;;8.73;6.00;;;6.40;99.90;;;;;;5008676;28;20022;-90
2021/03/23 01:04:18;;;;;;;8.20;6.18;;;6.40;99.90;;;;;;5008417;28;20030;-90
2021/03/23 01:06:44;;;;;;;7.90;5.80;;;6.50;99.90;;;;;;5009294;28;20026;-89
2021/03/23 01:09:10;;;;;;;8.23;5.47;;;6.50;99.90;;;;;;4992393;28;20033;-90
2021/03/23 01:11:36;;;;;;;7.88;5.57;;;6.50;99.90;;;;;;5008663;28;20033;-90
2021/03/23 01:14:05;;;;;;;8.88;5.43;;;6.50;99.90;;;;;;5009606;28;20038;-89
2021/03/23 01:16:31;;;;;;;8.93;5.45;;;6.50;99.90;;;;;;5007996;28;20041;-89
2021/03/23 01:18:57;;;;;;;7.55;5.47;;;6.50;99.90;;;;;;5009777;28;20373;-90
2021/03/23 01:21:24;;;;;;;7.55;5.18;;;6.50;99.90;;;;;;5008310;28;20371;-90
2021/03/23 01:23:52;;;;;;;7.70;5.22;;;6.50;99.90;;;;;;5008424;28;20422;-89
2021/03/23 01:26:20;;;;;;;7.70;5.15;;;6.50;99.90;;;;;;4992006;28;20037;-89
2021/03/23 01:28:46;;;;;;;7.93;4.95;;;6.50;99.90;;;;;;4991369;28;20038;-90
2021/03/23 01:31:12;;;;;;;9.05;5.82;;;6.50;99.90;;;;;;5008393;28;20026;-89
2021/03/23 01:33:38;;;;;;;9.70;7.22;;;6.50;99.90;;;;;;5008341;28;20454;-90
2021/03/23 01:36:05;;;;;;;11.35;7.03;;;6.50;99.90;;;;;;5009153;28;20026;-89
2021/03/23 01:38:34;;;;;;;9.85;7.03;;;6.40;99.90;;;;;;5003624;28;20924;-90
2021/03/23 01:41:01;;;;;;;11.10;7.95;;;6.40;99.90;;;;;;5010111;28;20029;-90
2021/03/23 01:43:31;;;;;;;9.98;6.97;;;6.40;99.90;;;;;;5005568;28;20382;-89
2021/03/23 01:45:59;;;;;;;8.95;6.63;;;6.40;99.90;;;;;;5002321;28;20030;-89
2021/03/23 01:48:31;;;;;;;12.30;7.20;;;6.40;99.90;;;;;;5009366;28;20537;-90
2021/03/23 01:51:09;;;;;;;12.60;7.57;;;6.40;99.90;;;;;;5009263;28;20127;-90
2021/03/23 01:53:46;;;;;;;10.30;7.13;;;6.40;99.90;;;;;;5016063;28;20058;-89
2021/03/23 01:56:18;;;;;;;9.55;6.57;;;6.40;99.90;;;;;;5016716;28;20036;-90
2021/03/23 01:58:49;;;;;;;12.60;7.40;;;6.40;99.90;;;;;;5011729;28;20036;-90
2021/03/23 02:01:17;;;;;;;7.93;5.70;;;6.40;99.90;;;;;;5005713;28;20113;-90
2021/03/23 02:03:43;;;;;;;9.32;5.75;;;6.40;99.90;;;;;;4991789;28;20033;-89
2021/03/23 02:06:42;;;;;;;9.57;6.03;;;6.40;99.90;;;;;;4975834;28;20026;-90
2021/03/23 02:09:20;;;;;;;9.65;6.85;;;6.40;99.90;;;;;;4998293;28;20044;-90
2021/03/23 02:11:49;;;;;;;10.45;7.22;;;6.40;99.90;;;;;;4986922;28;20033;-89
2021/03/23 02:14:16;;;;;;;10.90;7.22;;;6.40;99.90;;;;;;5009508;28;20029;-89
2021/03/23 02:16:43;;;;;;;9.32;6.53;;;6.40;99.90;;;;;;4976368;28;20029;-89
2021/03/23 02:19:11;;;;;;;10.05;6.95;;;6.40;99.90;;;;;;5009244;28;20033;-88
2021/03/23 02:21:37;;;;;;;11.80;7.63;;;6.30;99.90;;;;;;4998122;28;20037;-88
2021/03/23 02:24:04;;;;;;;9.40;6.80;;;6.30;99.90;;;;;;4980929;28;20409;-89
2021/03/23 02:26:34;;;;;;;11.35;8.65;;;6.40;99.90;;;;;;5005412;28;20029;-88
2021/03/23 02:29:14;;;;;;;12.88;9.05;;;6.40;99.90;;;;;;5010703;28;20067;-89
2021/03/23 02:31:49;;;;;;;16.63;11.68;;;6.40;99.90;;;;;;4997468;28;20034;-88
2021/03/23 02:34:22;;;;;;;15.25;11.48;;;6.30;99.90;;;;;;5014786;28;20026;-89
2021/03/23 02:36:51;;;;;;;18.50;11.73;;;6.30;99.90;;;;;;4997304;28;20109;-89
2021/03/23 02:39:21;;;;;;;15.50;12.05;;;6.30;99.90;;;;;;4997390;28;20033;-87
2021/03/23 02:41:46;;;;;;;16.38;12.07;;;6.30;99.90;;;;;;4997530;28;20493;-90
2021/03/23 02:44:12;;;;;;;16.83;12.20;;;6.30;99.90;;;;;;4996244;28;20173;-90
2021/03/23 02:46:39;;;;;;;17.58;12.75;;;6.30;99.90;;;;;;5014394;28;20028;-90
2021/03/23 02:49:10;;;;;;;16.33;12.55;;;6.30;99.90;;;;;;5014992;28;20140;-89
2021/03/23 02:51:39;;;;;;;17.77;11.93;;;6.30;99.90;;;;;;4996874;28;20029;-90
2021/03/23 02:54:09;;;;;;;16.30;11.95;;;6.20;99.90;;;;;;5029657;28;20196;-89
2021/03/23 02:56:38;;;;;;;14.82;11.00;;;6.20;99.90;;;;;;5017690;28;20071;-90
2021/03/23 02:59:03;;;;;;;16.48;10.98;;;6.30;99.90;;;;;;5033048;28;20025;-90
2021/03/23 03:01:29;;;;;;;16.90;11.68;;;6.30;99.90;;;;;;5032527;28;20516;-91
2021/03/23 03:03:55;;;;;;;16.02;11.25;;;6.30;99.90;;;;;;5032394;28;20029;-90
2021/03/23 03:06:21;;;;;;;15.75;10.80;;;6.30;99.90;;;;;;5032341;28;20484;-90
2021/03/23 03:08:50;;;;;;;17.98;13.05;;;6.30;99.90;;;;;;4978878;28;20034;-90
2021/03/23 03:11:36;;;;;;;14.32;11.43;;;6.30;99.90;;;;;;4992919;28;20026;-90
2021/03/23 03:14:03;;;;;;;16.10;11.10;;;6.30;99.90;;;;;;4993276;28;20022;-90
2021/03/23 03:16:33;;;;;;;17.48;12.20;;;6.30;99.90;;;;;;4992677;28;20089;-90
2021/03/23 03:19:05;;;;;;;17.98;12.23;;;6.30;99.90;;;;;;4994705;28;20118;-90
2021/03/23 03:21:31;;;;;;;19.73;13.65;;;6.30;99.90;;;;;;4998984;28;20117;-90
2021/03/23 03:23:56;;;;;;;21.17;14.52;;;6.30;99.90;;;;;;4998291;28;20061;-90
2021/03/23 03:26:22;;;;;;;23.08;15.95;;;6.30;99.90;;;;;;4998295;28;20026;-90
2021/03/23 03:28:52;;;;;;;20.02;14.82;;;6.30;99.90;;;;;;4997263;28;20057;-90
2021/03/23 03:31:26;;;;;;;21.65;14.98;;;6.30;99.90;;;;;;4997999;28;20025;-91
2021/03/23 03:34:06;;;;;;;;;;;;;;;;;;;;;
2021/03/23 03:36:34;;;;;;;24.77;15.98;;;6.30;99.90;;;;;;4999209;28;20037;-91
2021/03/23 03:39:00;;;;;;;21.35;15.27;;;6.30;99.90;;;;;;5016491;28;20030;-92
2021/03/23 03:41:29;;;;;;;20.70;14.95;;;6.30;99.90;;;;;;5017366;28;20092;-90
2021/03/23 03:43:57;;;;;;;22.40;16.20;;;6.30;99.90;;;;;;5017560;28;20029;-90
2021/03/23 03:46:35;;;;;;;24.60;16.87;;;6.40;99.90;;;;;;5018714;28;20018;-90
2021/03/23 03:49:01;;;;;;;22.65;16.77;;;6.30;99.90;;;;;;5017471;28;20026;-91
2021/03/23 03:51:30;;;;;;;25.33;17.73;;;6.30;99.90;;;;;;5001354;28;20034;-91
2021/03/23 03:53:59;;;;;;;26.63;18.10;;;6.30;99.90;;;;;;5032078;28;20157;-88
2021/03/23 03:56:27;;;;;;;25.27;18.90;;;6.30;99.90;;;;;;5025061;28;20021;-88
2021/03/23 03:58:58;;;;;;;25.52;18.45;;;6.40;99.90;;;;;;5032303;28;20036;-90
2021/03/23 04:01:24;;;;;;;25.05;17.05;;;6.30;99.90;;;;;;5020610;28;20056;-89
2021/03/23 04:03:50;;;;;;;24.13;17.50;;;6.30;99.90;;;;;;5038214;28;20482;-90
2021/03/23 04:06:16;;;;;;;26.65;18.95;;;6.30;99.90;;;;;;5004240;28;20390;-90
2021/03/23 04:08:45;;;;;;;23.75;18.02;;;6.30;99.90;;;;;;5019852;28;20022;-89
2021/03/23 04:11:13;;;;;;;23.63;16.83;;;6.30;99.90;;;;;;5019714;28;20116;-90
2021/03/23 04:13:39;;;;;;;26.55;17.70;;;6.30;99.90;;;;;;5019825;28;20036;-89
2021/03/23 04:16:08;;;;;;;25.58;18.58;;;6.30;99.90;;;;;;5003994;28;20025;-89
2021/03/23 04:18:36;;;;;;;23.23;17.38;;;6.40;99.90;;;;;;5019732;28;20091;-90
2021/03/23 04:21:05;;;;;;;23.15;17.67;;;6.30;99.90;;;;;;5019863;28;20029;-90
2021/03/23 04:23:37;;;;;;;25.05;17.52;;;6.30;99.90;;;;;;5019722;28;20048;-89
2021/03/23 04:26:23;;;;;;;27.25;18.38;;;6.30;99.90;;;;;;5038018;28;20029;-90
2021/03/23 04:28:52;;;;;;;27.42;18.48;;;6.30;99.90;;;;;;5016891;28;20033;-90
2021/03/23 04:31:35;;;;;;;27.25;18.30;;;6.30;99.90;;;;;;5018533;28;20018;-89
2021/03/23 04:34:02;;;;;;;25.67;17.83;;;6.30;99.90;;;;;;5036704;28;20468;-91
2021/03/23 04:36:30;;;;;;;25.33;19.63;;;6.30;99.90;;;;;;5002816;28;20469;-90
2021/03/23 04:38:59;;;;;;;29.52;19.73;;;6.30;99.90;;;;;;5037271;28;20437;-90
2021/03/23 04:41:24;;;;;;;25.73;19.05;;;6.30;99.90;;;;;;5038842;28;20420;-89
2021/03/23 04:43:55;;;;;;;26.95;18.55;;;6.20;99.90;;;;;;5038660;28;20040;-89
2021/03/23 04:46:27;;;;;;;28.00;18.15;;;6.20;99.90;;;;;;5039362;28;20528;-90
2021/03/23 04:48:54;;;;;;;26.08;19.05;;;6.20;99.90;;;;;;5056961;28;20111;-90
2021/03/23 04:51:25;;;;;;;26.88;18.83;;;6.20;99.90;;;;;;5039473;28;20492;-90
2021/03/23 04:53:59;;;;;;;22.85;16.85;;;6.10;99.90;;;;;;5039236;28;20049;-89
2021/03/23 04:56:41;;;;;;;23.67;16.17;;;6.10;99.90;;;;;;5039174;28;20021;-89
2021/03/23 04:59:09;;;;;;;24.92;17.00;;;6.10;99.90;;;;;;5039098;28;20021;-90
2021/03/23 05:01:39;;;;;;;21.52;15.02;;;6.10;99.90;;;;;;5039369;28;20325;-89
2021/03/23 05:04:10;;;;;;;21.25;14.90;;;6.10;99.90;;;;;;5038938;28;20433;-89
2021/03/23 05:06:38;;;;;;;21.92;16.08;;;6.10;99.90;;;;;;5039184;28;20477;-89
2021/03/23 05:09:41;;;;;;;24.60;17.15;;;6.10;99.90;;;;;;5019026;28;20029;-89
2021/03/23 05:12:08;;;;;;;22.50;15.20;;;6.10;99.90;;;;;;5019150;28;20037;-89
2021/03/23 05:15:04;;;;;;;20.02;13.95;;;6.10;99.90;;;;;;5019339;28;20013;-90
2021/03/23 05:17:30;;;;;;;27.55;18.67;;;6.00;99.90;;;;;;5019148;28;20037;-90
2021/03/23 05:19:59;;;;;;;26.20;16.77;;;6.00;99.90;;;;;;5019093;28;20083;-89
2021/03/23 05:22:25;;;;;;;23.33;16.25;;;6.00;99.90;;;;;;5018670;28;20461;-90
2021/03/23 05:24:51;;;;;;;23.05;16.52;;;6.00;99.90;;;;;;5002671;28;20037;-90
2021/03/23 05:27:17;;;;;;;22.90;15.80;;;6.00;99.90;;;;;;5018755;28;20052;-91
2021/03/23 05:29:48;;;;;;;21.50;15.18;;;5.90;99.90;;;;;;5036208;28;20030;-90
2021/03/23 05:32:26;;;;;;;20.70;14.90;;;6.00;99.90;;;;;;5036554;28;20480;-90
2021/03/23 05:34:54;;;;;;;21.33;14.43;;;6.00;99.90;;;;;;5017889;28;20033;-90
2021/03/23 05:37:25;;;;;;;18.80;12.98;;;5.90;99.90;;;;;;5012433;28;20056;-90
2021/03/23 05:39:53;;;;;;;21.52;14.55;;;5.90;99.90;;;;;;5016568;28;20040;-90
2021/03/23 05:42:40;;;;;;;24.13;15.73;;;5.90;99.90;;;;;;5014688;28;20191;-90
2021/03/23 05:45:24;;;;;;;24.08;15.60;;;6.00;99.90;;;;;;5014892;28;20112;-90
2021/03/23 05:48:19;;;;;;;;;;;5.90;99.90;;;;;;5033993;28;20030;-90
2021/03/23 05:51:00;;;;;;;21.35;14.00;;;5.80;99.90;;;;;;5008874;28;19995;-89
2021/03/23 05:53:51;;;;;;;21.83;14.77;;;5.80;99.90;;;;;;5015267;28;20068;-89
2021/03/23 05:56:21;;;;;;;23.83;16.27;;;5.80;99.90;;;;;;5015665;28;20029;-90
2021/03/23 05:58:57;;;;;;;22.17;14.77;;;5.80;99.90;;;;;;5015184;28;20051;-89
2021/03/23 06:01:46;;;;;;;;;;;;;;;;;;;;;
2021/03/23 06:04:37;;;;;;;24.50;15.73;;;5.70;99.90;;;;;;5033224;28;20029;-90
2021/03/23 06:07:08;;;;;;;25.35;17.05;;;5.70;99.90;;;;;;5015614;28;20029;-90
2021/03/23 06:09:57;;;;;;;26.75;17.55;;;5.70;99.90;;;;;;4999456;28;20037;-91
2021/03/23 06:12:45;;;;;;;25.73;17.08;;;5.60;99.90;;;;;;5006260;28;20041;-89
2021/03/23 06:15:51;;;;;;;25.30;16.15;;;5.60;99.90;;;;;;5013131;28;20043;-90
2021/03/23 06:18:33;;;;;;;24.52;16.38;;;5.60;99.90;;;;;;5029355;28;20018;-91
2021/03/23 06:21:51;;;;;;;;;;;;;;;;;;;;;
2021/03/23 06:24:26;;;;;;;22.73;15.55;;;5.50;99.90;;;;;;5011421;28;20033;-91
2021/03/23 06:27:26;;;;;;;21.80;14.88;;;5.50;99.90;;;;;;5028181;28;20497;-91
2021/03/23 06:33:49;;;;;;;;;;;;;;;;;;;;;
2021/03/23 06:39:48;;;;;;;22.30;14.68;;;5.70;99.90;;;;;;5016021;28;20029;-89
2021/03/23 06:42:55;;;;;;;23.10;15.32;;;5.70;99.90;;;;;;5028785;28;20034;-90
2021/03/23 06:49:27;;;;;;;;;;;;;;;;;;;;;
2021/03/23 06:51:56;;;;;;;25.00;17.15;;;5.90;99.90;;;;;;5034215;28;20469;-89
2021/03/23 06:55:14;;;;;;;;;;;;;;;;;;;;;
2021/03/23 06:58:32;;;;;;;;;;;;;;;;;;;;;
2021/03/23 07:01:28;;;;;;;28.90;17.05;;;6.10;99.90;;;;;;4967865;28;20375;-89
2021/03/23 07:04:24;;;;;;;30.52;18.95;;;6.20;99.90;;;;;;5012460;28;20266;-90
2021/03/23 07:07:34;;;;;;;33.47;19.85;;;6.20;99.90;;;;;;5013322;28;20018;-91
2021/03/23 07:10:18;;;;;;;27.60;18.85;;;6.30;99.90;;;;;;5012986;28;20034;-91
2021/03/23 07:12:59;;;;;;;32.38;20.05;;;6.40;99.90;;;;;;5013843;28;20117;-90
2021/03/23 07:16:11;;;;;;;32.55;20.10;;;6.50;99.90;;;;;;4997914;28;20026;-91
2021/03/23 07:19:10;;;;;;;;;;;;;;;;;;;;;
2021/03/23 07:22:33;;;;;;;;;;;;;;;;;;;;;
2021/03/23 07:33:07;;;;;;;;;;;;;;;;;;;;;
2021/03/23 07:36:20;;;;;;;37.47;22.17;;;6.90;99.90;;;;;;4904590;29;20052;-92
2021/03/23 07:46:28;;;;;;;;;;;;;;;;;;;;;
2021/03/23 07:52:52;;;;;;;48.05;29.80;;;7.60;99.90;;;;;;4833379;29;20065;-91
2021/03/23 07:59:23;;;;;;;;;;;;;;;;;;;;;
2021/03/23 08:09:30;;;;;;;;;;;;;;;;;;;;;
2021/03/23 08:12:37;;;;;;;76.20;42.95;;;7.60;99.90;;;;;;4895590;29;20035;-91
2021/03/23 08:23:25;;;;;;;;;;;;;;;;;;;;;
2021/03/23 08:30:39;;;;;;;;;;;;;;;;;;;;;
2021/03/23 08:33:50;;;;;;;67.28;38.78;;;7.40;99.90;;;;;;4812575;29;20045;-91
2021/03/23 09:56:25;;;;;;;;;;;;;;;;;;;;;
2021/03/23 10:03:24;;;;;;;53.38;30.67;;;7.90;99.90;;;;;;4988160;28;20025;-90
2021/03/23 10:10:24;;;;;;;;;;;8.00;99.90;;;;;;4996323;28;20041;-91
2021/03/23 10:13:09;;;;;;;;;;;;;;;;;;;;;
2021/03/23 10:16:07;;;;;;;56.90;29.95;;;8.10;99.90;;;;;;4938556;29;19914;-90
2021/03/23 10:19:18;;;;;;;50.60;29.75;;;8.20;99.90;;;;;;4955225;29;20054;-90
2021/03/23 10:22:27;;;;;;;59.30;34.63;;;8.40;99.90;;;;;;4954262;28;20063;-90
2021/03/23 10:25:37;;;;;;;55.10;32.42;;;8.40;99.90;;;;;;4925540;29;20090;-90
2021/03/23 10:32:28;;;;;;;;;;;;;;;;;;;;;
2021/03/23 10:35:26;;;;;;;58.03;34.42;;;8.60;99.90;;;;;;4972506;28;20386;-90
2021/03/23 10:38:59;;;;;;;60.10;34.80;;;8.70;99.90;;;;;;4975919;28;20178;-92
2021/03/23 10:42:17;;;;;;;59.58;35.25;;;8.80;99.90;;;;;;4953276;28;20050;-92
2021/03/23 10:50:03;;;;;;;;;;;;;;;;;;;;;
2021/03/23 11:04:02;;;;;;;;;;;;;;;;;;;;;
2021/03/23 11:07:31;;;;;;;64.32;37.13;;;9.00;99.90;;;;;;4841767;29;20036;-91
2021/03/23 11:10:40;;;;;;;;;;;;;;;;;;;;;
2021/03/23 11:14:15;;;;;;;;;;;;;;;;;;;;;
2021/03/23 11:21:06;;;;;;;;;;;;;;;;;;;;;
2021/03/23 11:45:19;;;;;;;;;;;;;;;;;;;;;
2021/03/23 12:07:11;;;;;;;;;;;;;;;;;;;;;
2021/03/23 12:14:21;;;;;;;;;;;;;;;;;;;;;
2021/03/23 12:21:21;;;;;;;;;;;;;;;;;;;;;
2021/03/23 12:28:03;;;;;;;;;;;;;;;;;;;;;
2021/03/23 12:34:53;;;;;;;;;;;;;;;;;;;;;
2021/03/23 12:37:50;;;;;;;;;;;;;;;;;;;;;
2021/03/23 12:40:51;;;;;;;57.60;35.90;;;9.90;99.90;;;;;;4837352;29;20057;-92
2021/03/23 12:43:53;;;;;;;;;;;;;;;;;;;;;
2021/03/23 12:47:40;;;;;;;;;;;;;;;;;;;;;
2021/03/23 12:55:00;;;;;;;;;;;;;;;;;;;;;
2021/03/23 13:01:15;;;;;;;;;;;;;;;;;;;;;
2021/03/23 13:04:40;;;;;;;;;;;;;;;;;;;;;
2021/03/23 13:08:28;;;;;;;;;;;;;;;;;;;;;
2021/03/23 13:18:10;;;;;;;;;;;;;;;;;;;;;
2021/03/23 13:25:32;;;;;;;;;;;;;;;;;;;;;
2021/03/23 13:31:52;;;;;;;53.80;33.72;;;9.70;99.90;;;;;;4829290;29;20486;-91
2021/03/23 13:39:21;;;;;;;;;;;;;;;;;;;;;
2021/03/23 13:43:07;;;;;;;;;;;;;;;;;;;;;
2021/03/23 13:56:53;;;;;;;67.30;41.13;;;9.80;99.90;;;;;;4779272;29;20038;-91
2021/03/23 14:03:56;;;;;;;;;;;;;;;;;;;;;
2021/03/23 14:06:35;;;;;;;65.30;39.63;;;9.70;99.90;;;;;;4802487;29;20049;-92
2021/03/23 14:10:01;;;;;;;66.05;38.80;;;9.70;99.90;;;;;;4789537;29;20149;-91
2021/03/23 14:12:33;;;;;;;67.20;39.13;;;9.70;99.90;;;;;;4788312;29;20047;-91
2021/03/23 14:15:20;;;;;;;67.38;38.83;;;9.80;99.90;;;;;;4835388;29;20042;-89
2021/03/23 14:18:08;;;;;;;56.08;33.65;;;9.80;99.90;;;;;;4873907;29;20887;-91
2021/03/23 14:20:49;;;;;;;62.97;37.13;;;9.90;99.90;;;;;;4892131;29;20088;-90
2021/03/23 14:24:23;;;;;;;62.90;36.75;;;10.00;99.90;;;;;;4922768;29;20036;-90
2021/03/23 14:27:13;;;;;;;;;;;;;;;;;;;;;
2021/03/23 14:29:54;;;;;;;54.13;35.10;;;10.10;99.90;;;;;;4990407;28;20034;-91
2021/03/23 14:32:34;;;;;;;57.45;35.05;;;10.10;99.90;;;;;;5009437;28;20074;-90
2021/03/23 14:35:12;;;;;;;55.47;34.00;;;10.20;99.90;;;;;;5004932;28;20046;-91
2021/03/23 14:37:55;;;;;;;59.22;35.20;;;10.20;99.90;;;;;;4966480;28;20060;-89
2021/03/23 14:40:39;;;;;;;62.45;36.30;;;10.10;99.90;;;;;;5013239;28;20046;-92
2021/03/23 14:43:16;;;;;;;57.78;37.25;;;10.10;99.90;;;;;;4986948;28;20140;-90
2021/03/23 14:45:57;;;;;;;57.85;36.20;;;10.00;99.90;;;;;;5003060;28;20041;-91
2021/03/23 14:48:47;;;;;;;61.97;37.40;;;10.00;99.90;;;;;;5009661;28;20038;-90
2021/03/23 14:51:58;;;;;;;;;;;;;;;;;;;;;
2021/03/23 14:57:34;;;;;;;56.55;37.10;;;10.00;99.90;;;;;;4945626;28;20126;-90
2021/03/23 15:00:05;;;;;;;55.45;33.72;;;10.00;99.90;;;;;;4963031;28;20042;-90
2021/03/23 15:03:02;;;;;;;55.97;36.58;;;10.00;99.90;;;;;;4952288;28;20047;-90
2021/03/23 15:05:56;;;;;;;48.63;33.15;;;10.00;99.90;;;;;;4954637;28;20051;-90
2021/03/23 15:08:27;;;;;;;49.55;33.25;;;10.10;99.90;;;;;;4955924;28;20565;-91
2021/03/23 15:11:12;;;;;;;46.53;31.67;;;10.10;99.90;;;;;;4963558;28;20125;-91
2021/03/23 15:13:40;;;;;;;42.40;28.95;;;10.10;99.90;;;;;;4990312;28;20046;-90
2021/03/23 15:16:36;;;;;;;36.35;25.95;;;10.20;99.90;;;;;;4999010;28;20097;-89
2021/03/23 15:19:26;;;;;;;38.17;26.75;;;10.30;99.90;;;;;;4998417;28;20038;-91
2021/03/23 15:22:25;;;;;;;;;;;;;;;;;;;;;
2021/03/23 15:25:16;;;;;;;;;;;;;;;;;;;;;
2021/03/23 15:28:32;;;;;;;;;;;;;;;;;;;;;
2021/03/23 15:34:27;;;;;;;36.38;26.33;;;10.70;99.90;;;;;;4942755;29;20048;-90
2021/03/23 15:37:12;;;;;;;33.90;24.08;;;10.70;99.90;;;;;;4943375;29;20506;-90
2021/03/23 15:39:42;;;;;;;32.45;22.42;;;10.90;99.90;;;;;;4927075;29;20062;-90
2021/03/23 15:42:45;;;;;;;;;;;;;;;;;;;;;
2021/03/23 15:48:41;;;;;;;31.75;23.52;;;11.30;99.90;;;;;;4951251;29;20634;-89
2021/03/23 15:52:35;;;;;;;28.83;21.05;;;11.20;99.90;;;;;;4950494;28;20043;-90
2021/03/23 15:54:48;;;;;;;29.35;19.98;;;11.20;99.90;;;;;;4915155;28;20043;-89
2021/03/23 15:58:06;;;;;;;;;;;;;;;;;;;;;
2021/03/23 16:00:42;;;;;;;30.17;21.67;;;11.10;99.90;;;;;;4952441;28;20460;-89
2021/03/23 16:03:31;;;;;;;30.75;22.20;;;11.00;99.90;;;;;;4939574;29;20039;-90
2021/03/23 16:06:03;;;;;;;37.75;25.95;;;10.90;99.90;;;;;;4940263;28;20077;-88
2021/03/23 16:08:39;;;;;;;32.10;24.73;;;10.90;99.90;;;;;;5011375;28;20034;-89
2021/03/23 16:11:11;;;;;;;32.33;22.73;;;10.80;99.90;;;;;;5014899;28;20049;-90
2021/03/23 16:14:10;;;;;;;31.08;21.92;;;10.80;99.90;;;;;;4992827;28;20037;-89
2021/03/23 16:17:00;;;;;;;;;;;;;;;;;;;;;
2021/03/23 16:19:55;;;;;;;;;;;;;;;;;;;;;
2021/03/23 16:22:30;;;;;;;29.95;20.83;;;11.00;99.90;;;;;;5015964;28;20018;-90
2021/03/23 16:25:42;;;;;;;25.67;19.80;;;11.00;99.90;;;;;;5015855;28;20437;-90
2021/03/23 16:28:25;;;;;;;28.65;20.90;;;10.90;99.90;;;;;;4952830;28;20866;-91
2021/03/23 16:38:19;;;;;;;;;;;;;;;;;;;;;
2021/03/23 16:41:13;;;;;;;26.77;20.85;;;10.70;99.90;;;;;;4886148;29;20056;-89
2021/03/23 16:46:46;;;;;;;33.28;24.20;;;10.60;99.90;;;;;;4889825;29;20040;-90
2021/03/23 16:49:21;;;;;;;29.95;22.27;;;10.50;99.90;;;;;;4912415;29;20493;-89
2021/03/23 16:52:47;;;;;;;;;;;;;;;;;;;;;
2021/03/23 16:55:45;;;;;;;25.55;18.98;;;10.50;99.90;;;;;;4879950;29;20131;-90
2021/03/23 16:58:49;;;;;;;23.70;18.75;;;10.40;99.90;;;;;;4911170;29;20103;-90
2021/03/23 17:01:45;;;;;;;26.95;19.30;;;10.40;99.90;;;;;;4859200;29;20045;-91
2021/03/23 17:05:14;;;;;;;;;;;;;;;;;;;;;
2021/03/23 17:07:32;;;;;;;27.38;19.77;;;10.30;99.90;;;;;;4866678;29;20029;-91
2021/03/23 17:10:04;;;;;;;24.95;18.55;;;10.30;99.90;;;;;;4886548;29;20044;-89
2021/03/23 17:12:57;;;;;;;25.95;18.48;;;10.20;99.90;;;;;;4892445;29;20044;-90
2021/03/23 17:15:42;;;;;;;24.88;18.35;;;10.20;99.90;;;;;;4903940;29;20040;-91
2021/03/23 17:18:14;;;;;;;25.95;17.88;;;10.00;99.90;;;;;;4891846;29;20507;-90
2021/03/23 17:21:06;;;;;;;21.23;16.05;;;10.00;99.90;;;;;;4896410;29;20056;-89
2021/03/23 17:23:35;;;;;;;22.70;16.60;;;9.90;99.90;;;;;;4902516;29;20087;-90
2021/03/23 17:26:10;;;;;;;24.35;19.08;;;9.80;99.90;;;;;;4989411;28;20085;-90
2021/03/23 17:28:37;;;;;;;28.83;22.23;;;9.80;99.90;;;;;;4998965;28;20042;-89
2021/03/23 17:31:07;;;;;;;30.13;22.58;;;9.80;99.90;;;;;;4992820;28;20034;-90
2021/03/23 17:33:42;;;;;;;28.85;21.40;;;9.80;99.90;;;;;;4993934;28;20058;-89
2021/03/23 17:36:18;;;;;;;30.45;22.33;;;9.70;99.90;;;;;;4996086;28;20077;-89
2021/03/23 17:38:57;;;;;;;28.23;21.40;;;9.70;99.90;;;;;;4975393;28;20050;-90
2021/03/23 17:41:29;;;;;;;30.40;22.52;;;9.70;99.90;;;;;;5004111;28;20048;-90
2021/03/23 17:44:02;;;;;;;29.48;22.80;;;9.80;99.90;;;;;;5015956;28;20064;-91
2021/03/23 17:46:44;;;;;;;28.38;22.63;;;9.80;99.90;;;;;;5017973;28;20076;-90
2021/03/23 17:49:11;;;;;;;30.48;22.13;;;9.80;99.90;;;;;;4999730;28;20125;-90
2021/03/23 17:51:52;;;;;;;27.85;20.17;;;9.90;99.90;;;;;;4996910;28;20077;-90
2021/03/23 17:54:22;;;;;;;26.65;20.50;;;9.90;99.90;;;;;;5019092;28;20025;-91
2021/03/23 17:56:51;;;;;;;27.50;18.83;;;9.90;99.90;;;;;;5009758;28;20038;-88
2021/03/23 17:59:22;;;;;;;23.77;18.25;;;9.90;99.90;;;;;;5020298;28;20088;-91
2021/03/23 18:02:00;;;;;;;29.90;20.95;;;9.90;99.90;;;;;;5011930;28;20057;-90
2021/03/23 18:04:30;;;;;;;27.08;19.90;;;10.00;99.90;;;;;;5019091;28;20478;-90
2021/03/23 18:07:17;;;;;;;31.73;21.60;;;10.00;99.90;;;;;;5026951;28;20042;-90
2021/03/23 18:09:47;;;;;;;28.67;22.85;;;9.90;99.90;;;;;;4964042;28;20047;-90
2021/03/23 18:12:35;;;;;;;34.38;24.42;;;9.90;99.90;;;;;;4999460;28;20042;-90
2021/03/23 18:15:20;;;;;;;;;;;;;;;;;;;;;
2021/03/23 18:18:00;;;;;;;27.65;22.40;;;9.90;99.90;;;;;;5019797;28;20040;-91
2021/03/23 18:20:29;;;;;;;30.63;23.02;;;9.90;99.90;;;;;;5017388;28;20052;-91
2021/03/23 18:23:15;;;;;;;32.20;24.63;;;9.90;99.90;;;;;;4989869;28;20045;-91
2021/03/23 18:25:46;;;;;;;33.22;25.02;;;9.90;99.90;;;;;;4991356;28;20638;-91
2021/03/23 18:28:50;;;;;;;33.85;24.45;;;9.90;99.90;;;;;;5012598;28;20113;-91
2021/03/23 18:31:22;;;;;;;35.15;24.48;;;9.80;99.90;;;;;;5017318;28;20050;-91
2021/03/23 18:33:54;;;;;;;36.40;24.87;;;9.80;99.90;;;;;;5029884;28;20162;-91
2021/03/23 18:36:23;;;;;;;32.42;24.98;;;9.80;99.90;;;;;;5014418;28;20072;-91
2021/03/23 18:38:56;;;;;;;37.55;27.23;;;9.80;99.90;;;;;;5012228;28;20101;-91
2021/03/23 18:41:36;;;;;;;38.22;27.13;;;9.70;99.90;;;;;;5003970;28;20088;-90
2021/03/23 18:44:10;;;;;;;33.05;25.15;;;9.70;99.90;;;;;;4991509;28;20196;-90
2021/03/23 18:46:44;;;;;;;31.45;24.48;;;9.70;99.90;;;;;;4994309;28;20045;-91
2021/03/23 18:49:46;;;;;;;35.55;25.33;;;9.70;99.90;;;;;;4965343;28;20431;-90
2021/03/23 18:52:17;;;;;;;30.15;22.25;;;9.60;99.90;;;;;;5021240;28;20390;-91
2021/03/23 18:54:49;;;;;;;30.58;23.27;;;9.50;99.90;;;;;;4993345;28;20041;-90
2021/03/23 18:57:37;;;;;;;30.52;23.02;;;9.50;99.90;;;;;;5010328;28;20053;-90
2021/03/23 19:00:50;;;;;;;;;;;;;;;;;;;;;
2021/03/23 19:06:56;;;;;;;26.02;18.70;;;9.10;99.90;;;;;;4982869;28;20033;-90
2021/03/23 19:09:33;;;;;;;27.17;20.50;;;9.00;99.90;;;;;;5009794;28;20037;-89
2021/03/23 19:12:05;;;;;;;29.55;22.17;;;8.90;99.90;;;;;;5007182;28;20066;-91
2021/03/23 19:15:05;;;;;;;29.50;21.60;;;8.80;99.90;;;;;;5006015;28;20041;-90
2021/03/23 19:18:02;;;;;;;30.60;22.05;;;8.70;99.90;;;;;;5006914;28;20053;-90
2021/03/23 19:21:10;;;;;;;;;;;;;;;;;;;;;
2021/03/23 19:23:45;;;;;;;30.00;21.20;;;8.50;99.90;;;;;;5000286;28;20056;-89
2021/03/23 19:26:24;;;;;;;29.77;21.40;;;8.40;99.90;;;;;;5007017;28;20118;-91
2021/03/23 19:29:24;;;;;;;28.38;20.80;;;8.30;99.90;;;;;;5006539;28;20096;-89
2021/03/23 19:32:13;;;;;;;27.80;21.00;;;8.30;99.90;;;;;;4965686;28;20058;-90
2021/03/23 19:34:41;;;;;;;32.85;24.45;;;8.20;99.90;;;;;;5002829;28;20037;-89
2021/03/23 19:37:15;;;;;;;32.17;24.02;;;8.10;99.90;;;;;;5010441;28;20061;-90
2021/03/23 19:39:51;;;;;;;36.47;26.38;;;8.10;99.90;;;;;;4995881;28;20411;-90
2021/03/23 19:42:25;;;;;;;34.47;24.70;;;8.00;99.90;;;;;;5020989;28;20034;-91
2021/03/23 19:44:58;;;;;;;32.00;25.23;;;8.00;99.90;;;;;;4993212;28;20041;-91
2021/03/23 19:47:48;;;;;;;33.47;25.00;;;7.90;99.90;;;;;;5013797;28;20030;-91
2021/03/23 19:50:48;;;;;;;34.45;23.88;;;7.90;99.90;;;;;;5017165;28;20670;-90
2021/03/23 19:53:35;;;;;;;28.80;21.95;;;7.80;99.90;;;;;;4986191;28;20098;-89